createdAt,value
2018-09-14T00:02:23.515Z,11.50
2018-09-14T00:04:52.121Z,11.50
2018-09-14T00:07:20.734Z,11.50
2018-09-14T00:09:49.331Z,11.50
2018-09-14T00:12:17.951Z,11.40
2018-09-14T00:14:46.543Z,11.40
2018-09-14T00:17:15.163Z,11.30
2018-09-14T00:19:43.775Z,11.40
2018-09-14T00:22:12.389Z,11.30
2018-09-14T00:24:40.991Z,11.30
2018-09-14T00:27:09.599Z,11.20
2018-09-14T00:29:38.205Z,11.20
2018-09-14T00:32:07.071Z,11.20
2018-09-14T00:34:35.666Z,11.20
2018-09-14T00:37:04.768Z,11.20
2018-09-14T00:39:33.384Z,11.20
2018-09-14T00:42:02.116Z,11.10
2018-09-14T00:44:30.731Z,11.10
2018-09-14T00:46:59.339Z,11.10
2018-09-14T00:49:27.947Z,11.10
2018-09-14T00:51:56.576Z,11.00
2018-09-14T00:54:25.190Z,10.90
2018-09-14T00:56:53.803Z,10.80
2018-09-14T00:59:22.526Z,10.80
2018-09-14T01:01:51.118Z,10.80
2018-09-14T01:04:19.720Z,10.80
2018-09-14T01:06:48.323Z,10.80
2018-09-14T01:09:22.275Z,10.80
2018-09-14T01:11:50.884Z,10.70
2018-09-14T01:14:19.482Z,10.70
2018-09-14T01:16:48.088Z,10.70
2018-09-14T01:19:16.693Z,10.70
2018-09-14T01:21:45.293Z,10.70
2018-09-14T01:24:13.904Z,10.70
2018-09-14T01:26:42.504Z,10.60
2018-09-14T01:29:11.124Z,10.60
2018-09-14T01:31:39.740Z,10.60
2018-09-14T01:34:08.348Z,10.60
2018-09-14T01:36:36.968Z,10.50
2018-09-14T01:39:08.431Z,10.40
2018-09-14T01:41:37.090Z,10.30
2018-09-14T01:44:05.988Z,10.40
2018-09-14T01:46:34.583Z,10.40
2018-09-14T01:49:03.188Z,10.40
2018-09-14T01:51:31.787Z,10.30
2018-09-14T01:54:00.430Z,10.30
2018-09-14T01:56:29.023Z,10.20
2018-09-14T01:58:57.649Z,10.20
2018-09-14T02:01:26.271Z,10.10
2018-09-14T02:03:54.888Z,10.10
2018-09-14T02:06:24.167Z,10.10
2018-09-14T02:08:52.775Z,10.20
2018-09-14T02:11:21.371Z,10.10
2018-09-14T02:13:50.040Z,10.10
2018-09-14T02:16:18.649Z,10.10
2018-09-14T02:18:47.259Z,10.10
2018-09-14T02:21:15.955Z,10.10
2018-09-14T02:23:44.563Z,10.00
2018-09-14T02:26:13.171Z,10.00
2018-09-14T02:28:41.784Z,10.00
2018-09-14T02:31:10.387Z,10.00
2018-09-14T02:33:38.984Z,10.00
2018-09-14T02:36:07.602Z,9.90
2018-09-14T02:38:36.232Z,9.90
2018-09-14T02:41:04.955Z,9.90
2018-09-14T02:43:33.623Z,9.90
2018-09-14T02:46:02.234Z,9.80
2018-09-14T02:48:30.818Z,9.90
2018-09-14T02:50:59.426Z,9.90
2018-09-14T02:53:28.035Z,9.90
2018-09-14T02:55:56.643Z,9.90
2018-09-14T02:58:25.243Z,9.80
2018-09-14T03:00:53.848Z,9.80
2018-09-14T03:03:22.429Z,9.80
2018-09-14T03:05:51.023Z,9.80
2018-09-14T03:08:19.627Z,9.80
2018-09-14T03:10:48.231Z,9.80
2018-09-14T03:13:16.832Z,9.80
2018-09-14T03:15:45.427Z,9.70
2018-09-14T03:18:14.021Z,9.70
2018-09-14T03:20:42.616Z,9.70
2018-09-14T03:23:11.224Z,9.70
2018-09-14T03:25:39.819Z,9.70
2018-09-14T03:28:08.420Z,9.70
2018-09-14T03:30:37.030Z,9.70
2018-09-14T03:33:05.768Z,9.60
2018-09-14T03:35:34.363Z,9.60
2018-09-14T03:38:02.963Z,9.60
2018-09-14T03:40:31.556Z,9.50
2018-09-14T03:43:00.151Z,9.50
2018-09-14T03:45:28.747Z,9.50
2018-09-14T03:47:57.332Z,9.50
2018-09-14T03:50:25.939Z,9.50
2018-09-14T03:52:54.639Z,9.50
2018-09-14T03:55:23.328Z,9.50
2018-09-14T03:57:51.911Z,9.50
2018-09-14T04:00:20.507Z,9.50
2018-09-14T04:02:49.111Z,9.50
2018-09-14T04:05:17.719Z,9.50
2018-09-14T04:07:46.348Z,9.50
2018-09-14T04:10:14.903Z,9.50
2018-09-14T04:12:43.500Z,9.50
2018-09-14T04:15:12.107Z,9.40
2018-09-14T04:17:40.725Z,9.30
2018-09-14T04:20:09.319Z,9.20
2018-09-14T04:22:37.925Z,9.30
2018-09-14T04:25:06.524Z,9.30
2018-09-14T04:27:35.156Z,9.30
2018-09-14T04:30:03.769Z,9.20
2018-09-14T04:32:32.367Z,9.10
2018-09-14T04:35:00.968Z,9.10
2018-09-14T04:37:29.570Z,9.10
2018-09-14T04:39:58.171Z,9.20
2018-09-14T04:42:26.789Z,9.10
2018-09-14T04:44:55.407Z,9.20
2018-09-14T04:47:24.015Z,9.20
2018-09-14T04:49:52.615Z,9.20
2018-09-14T04:52:21.221Z,9.20
2018-09-14T04:54:49.965Z,9.20
2018-09-14T04:57:18.587Z,9.20
2018-09-14T04:59:47.160Z,9.20
2018-09-14T05:02:15.804Z,9.30
2018-09-14T05:04:44.484Z,9.30
2018-09-14T05:07:13.721Z,9.20
2018-09-14T05:09:44.766Z,9.20
2018-09-14T05:12:13.500Z,9.30
2018-09-14T05:14:42.548Z,9.20
2018-09-14T05:17:11.135Z,9.20
2018-09-14T05:19:39.760Z,9.20
2018-09-14T05:22:08.391Z,9.20
2018-09-14T05:24:37.151Z,9.20
2018-09-14T05:27:05.673Z,9.20
2018-09-14T05:29:34.281Z,9.20
2018-09-14T05:32:02.879Z,9.30
2018-09-14T05:34:31.480Z,9.30
2018-09-14T05:37:00.087Z,9.30
2018-09-14T05:39:28.682Z,9.40
2018-09-14T05:41:57.287Z,9.40
2018-09-14T05:44:25.891Z,9.40
2018-09-14T05:46:54.492Z,9.40
2018-09-14T05:49:23.104Z,9.50
2018-09-14T05:51:51.911Z,9.50
2018-09-14T05:54:20.565Z,9.50
2018-09-14T05:56:49.116Z,9.50
2018-09-14T05:59:17.723Z,9.50
2018-09-14T06:01:46.388Z,9.60
2018-09-14T06:04:14.999Z,9.60
2018-09-14T06:06:43.702Z,9.80
2018-09-14T06:09:13.143Z,9.90
2018-09-14T06:11:42.360Z,10.00
2018-09-14T06:14:10.973Z,10.10
2018-09-14T06:16:40.071Z,10.10
2018-09-14T06:19:08.708Z,10.10
2018-09-14T06:21:37.312Z,10.10
2018-09-14T06:24:05.956Z,10.20
2018-09-14T06:26:34.569Z,10.30
2018-09-14T06:29:03.171Z,10.50
2018-09-14T06:31:31.782Z,10.70
2018-09-14T06:34:00.388Z,10.60
2018-09-14T06:36:28.996Z,10.60
2018-09-14T06:38:57.600Z,10.70
2018-09-14T06:41:26.207Z,10.80
2018-09-14T06:43:54.802Z,10.90
2018-09-14T06:46:23.423Z,11.00
2018-09-14T06:48:52.032Z,11.10
2018-09-14T06:51:20.635Z,11.00
2018-09-14T06:53:49.224Z,11.00
2018-09-14T06:56:17.842Z,11.10
2018-09-14T06:58:46.436Z,11.10
2018-09-14T07:01:15.048Z,11.20
2018-09-14T07:03:43.680Z,11.20
2018-09-14T07:06:12.292Z,11.30
2018-09-14T07:08:40.926Z,11.60
2018-09-14T07:11:09.531Z,11.80
2018-09-14T07:13:38.131Z,11.90
2018-09-14T07:16:06.743Z,11.80
2018-09-14T07:18:35.360Z,11.80
2018-09-14T07:21:03.959Z,11.90
2018-09-14T07:23:32.575Z,12.00
2018-09-14T07:26:01.196Z,12.20
2018-09-14T07:28:29.772Z,12.40
2018-09-14T07:30:58.392Z,12.40
2018-09-14T07:33:26.995Z,12.50
2018-09-14T07:35:55.595Z,12.60
2018-09-14T07:38:24.220Z,12.90
2018-09-14T07:40:52.832Z,12.90
2018-09-14T07:43:21.456Z,13.10
2018-09-14T07:45:50.167Z,13.10
2018-09-14T07:48:18.796Z,13.20
2018-09-14T07:50:47.388Z,13.20
2018-09-14T07:53:16.004Z,13.40
2018-09-14T07:55:44.619Z,13.60
2018-09-14T07:58:13.250Z,13.50
2018-09-14T08:00:41.888Z,13.70
2018-09-14T08:03:10.504Z,13.90
2018-09-14T08:05:39.120Z,14.00
2018-09-14T08:08:07.748Z,14.10
2018-09-14T08:10:36.400Z,14.40
2018-09-14T08:13:05.107Z,14.60
2018-09-14T08:15:33.727Z,14.80
2018-09-14T08:18:02.367Z,15.00
2018-09-14T08:20:31.477Z,15.30
2018-09-14T08:23:00.134Z,15.80
2018-09-14T08:25:28.757Z,16.10
2018-09-14T08:27:57.371Z,16.10
2018-09-14T08:30:26.032Z,16.10
2018-09-14T08:32:54.947Z,16.20
2018-09-14T08:35:23.579Z,16.30
2018-09-14T08:37:52.200Z,16.40
2018-09-14T08:40:20.825Z,16.40
2018-09-14T08:42:49.434Z,16.80
2018-09-14T08:45:18.051Z,17.20
2018-09-14T08:47:46.686Z,17.60
2018-09-14T08:50:15.283Z,17.60
2018-09-14T08:52:43.899Z,17.40
2018-09-14T08:55:12.531Z,17.50
2018-09-14T08:57:41.135Z,17.60
2018-09-14T09:00:09.762Z,17.60
2018-09-14T09:02:38.360Z,17.90
2018-09-14T09:05:07.037Z,17.90
2018-09-14T09:07:35.643Z,18.20
2018-09-14T09:10:04.312Z,18.70
2018-09-14T09:12:32.939Z,19.10
2018-09-14T09:15:01.556Z,19.90
2018-09-14T09:17:30.185Z,19.70
2018-09-14T09:19:58.882Z,19.80
2018-09-14T09:22:27.549Z,19.80
2018-09-14T09:24:56.191Z,19.40
2018-09-14T09:27:24.807Z,18.80
2018-09-14T09:29:53.431Z,18.90
2018-09-14T09:32:22.059Z,18.90
2018-09-14T09:34:50.683Z,18.90
2018-09-14T09:37:19.399Z,18.80
2018-09-14T09:39:48.037Z,19.20
2018-09-14T09:42:16.649Z,19.50
2018-09-14T09:44:45.274Z,19.60
2018-09-14T09:47:13.902Z,19.60
2018-09-14T09:49:42.534Z,19.60
2018-09-14T09:52:11.172Z,19.80
2018-09-14T09:54:39.793Z,19.80
2018-09-14T09:57:08.419Z,20.20
2018-09-14T09:59:41.644Z,20.70
2018-09-14T10:03:14.290Z,20.70
2018-09-14T10:05:48.284Z,21.00
2018-09-14T10:08:17.258Z,21.60
2018-09-14T10:10:48.672Z,22.10
2018-09-14T10:13:17.619Z,23.50
2018-09-14T10:15:46.264Z,24.10
2018-09-14T10:18:14.898Z,24.70
2018-09-14T10:20:43.591Z,25.40
2018-09-14T10:23:12.182Z,25.50
2018-09-14T10:25:40.803Z,25.90
2018-09-14T10:28:09.428Z,25.00
2018-09-14T10:30:38.039Z,24.80
2018-09-14T10:33:06.663Z,24.40
2018-09-14T10:35:35.282Z,24.00
2018-09-14T10:38:04.024Z,23.90
2018-09-14T10:40:32.730Z,23.20
2018-09-14T10:43:01.300Z,21.90
2018-09-14T10:45:29.907Z,21.10
2018-09-14T10:47:58.910Z,20.90
2018-09-14T10:50:34.566Z,21.40
2018-09-14T10:53:03.479Z,21.70
2018-09-14T10:55:32.299Z,22.50
2018-09-14T10:58:00.904Z,23.20
2018-09-14T11:00:29.537Z,23.40
2018-09-14T11:02:58.164Z,24.00
2018-09-14T11:05:28.353Z,24.10
2018-09-14T11:07:57.895Z,24.60
2018-09-14T11:10:33.876Z,24.90
2018-09-14T11:13:07.332Z,24.10
2018-09-14T11:15:36.133Z,24.60
2018-09-14T11:18:04.886Z,24.20
2018-09-14T11:20:33.649Z,23.60
2018-09-14T11:23:02.255Z,22.70
2018-09-14T11:25:30.913Z,22.40
2018-09-14T11:27:59.607Z,22.30
2018-09-14T11:30:28.307Z,22.70
2018-09-14T11:32:57.115Z,23.30
2018-09-14T11:35:25.748Z,23.30
2018-09-14T11:37:54.879Z,23.60
2018-09-14T11:40:23.488Z,23.40
2018-09-14T11:42:52.685Z,22.50
2018-09-14T11:45:21.384Z,22.00
2018-09-14T11:47:49.959Z,21.70
2018-09-14T11:50:18.591Z,21.60
2018-09-14T11:52:47.221Z,22.10
2018-09-14T11:55:15.860Z,22.40
2018-09-14T11:57:44.482Z,23.90
2018-09-14T12:00:13.179Z,24.60
2018-09-14T12:02:41.892Z,24.80
2018-09-14T12:05:10.532Z,25.00
2018-09-14T12:07:39.616Z,25.80
2018-09-14T12:10:09.100Z,26.30
2018-09-14T12:12:37.748Z,26.10
2018-09-14T12:15:06.398Z,25.80
2018-09-14T12:17:35.029Z,25.20
2018-09-14T12:20:03.633Z,25.20
2018-09-14T12:22:35.028Z,25.10
2018-09-14T12:25:11.377Z,25.50
2018-09-14T12:27:43.149Z,26.10
2018-09-14T12:30:11.784Z,26.50
2018-09-14T12:32:40.386Z,27.20
2018-09-14T12:35:09.000Z,27.60
2018-09-14T12:37:37.617Z,26.80
2018-09-14T12:40:07.407Z,24.80
2018-09-14T12:42:36.023Z,23.40
2018-09-14T12:45:04.700Z,25.00
2018-09-14T12:47:33.309Z,26.30
2018-09-14T12:50:01.987Z,27.20
2018-09-14T12:52:30.739Z,28.60
2018-09-14T12:54:59.343Z,27.80
2018-09-14T12:57:27.989Z,27.80
2018-09-14T12:59:56.599Z,27.00
2018-09-14T13:02:25.243Z,27.00
2018-09-14T13:04:53.852Z,26.50
2018-09-14T13:07:22.744Z,25.30
2018-09-14T13:09:51.356Z,25.50
2018-09-14T13:12:19.983Z,24.70
2018-09-14T13:14:48.583Z,25.70
2018-09-14T13:17:17.216Z,26.40
2018-09-14T13:19:45.848Z,27.20
2018-09-14T13:22:14.488Z,27.50
2018-09-14T13:24:43.547Z,26.30
2018-09-14T13:27:12.212Z,25.20
2018-09-14T13:29:40.835Z,25.10
2018-09-14T13:32:09.439Z,24.40
2018-09-14T13:34:38.071Z,24.00
2018-09-14T13:37:06.391Z,23.70
2018-09-14T13:39:35.012Z,25.00
2018-09-14T13:42:03.628Z,25.70
2018-09-14T13:44:32.257Z,24.90
2018-09-14T13:47:00.893Z,25.50
2018-09-14T13:49:29.512Z,26.50
2018-09-14T13:51:58.116Z,26.20
2018-09-14T13:54:26.736Z,24.50
2018-09-14T13:56:55.367Z,22.80
2018-09-14T13:59:23.988Z,22.40
2018-09-14T14:01:52.612Z,22.30
2018-09-14T14:04:21.658Z,22.40
2018-09-14T14:06:50.264Z,23.30
2018-09-14T14:09:18.883Z,24.30
2018-09-14T14:11:47.507Z,24.10
2018-09-14T14:14:16.128Z,23.80
2018-09-14T14:16:44.800Z,23.40
2018-09-14T14:19:13.395Z,23.80
2018-09-14T14:21:42.020Z,24.20
2018-09-14T14:24:10.660Z,24.50
2018-09-14T14:26:40.205Z,25.60
2018-09-14T14:29:08.827Z,26.00
2018-09-14T14:31:37.443Z,25.00
2018-09-14T14:34:06.550Z,23.30
2018-09-14T14:36:35.161Z,22.40
2018-09-14T14:39:04.738Z,22.00
2018-09-14T14:44:08.736Z,22.00
2018-09-14T14:46:37.295Z,22.50
2018-09-14T14:49:05.915Z,23.20
2018-09-14T14:51:34.553Z,24.10
2018-09-14T14:54:03.154Z,24.30
2018-09-14T14:56:31.787Z,23.70
2018-09-14T14:59:00.429Z,24.10
2018-09-14T15:01:29.051Z,24.40
2018-09-14T15:03:57.655Z,24.10
2018-09-14T15:06:26.296Z,24.20
2018-09-14T15:08:54.895Z,23.30
2018-09-14T15:11:23.528Z,23.80
2018-09-14T15:13:52.138Z,24.30
2018-09-14T15:16:20.746Z,24.30
2018-09-14T15:18:49.353Z,23.30
2018-09-14T15:21:18.104Z,22.40
2018-09-14T15:23:46.675Z,21.80
2018-09-14T15:26:15.294Z,22.00
2018-09-14T15:28:43.923Z,22.80
2018-09-14T15:31:12.561Z,22.90
2018-09-14T15:33:41.164Z,22.90
2018-09-14T15:36:09.768Z,22.90
2018-09-14T15:38:38.400Z,22.90
2018-09-14T15:41:07.029Z,22.70
2018-09-14T15:43:35.673Z,22.60
2018-09-14T15:46:04.243Z,22.40
2018-09-14T15:48:33.839Z,22.10
2018-09-14T15:51:02.441Z,21.60
2018-09-14T15:53:31.108Z,21.10
2018-09-14T15:55:59.712Z,21.00
2018-09-14T15:58:28.332Z,21.10
2018-09-14T16:00:56.956Z,21.40
2018-09-14T16:03:25.610Z,21.30
2018-09-14T16:05:54.211Z,21.20
2018-09-14T16:08:22.837Z,20.80
2018-09-14T16:10:51.476Z,20.70
2018-09-14T16:13:20.133Z,20.50
2018-09-14T16:15:48.707Z,20.30
2018-09-14T16:18:17.332Z,20.20
2018-09-14T16:20:46.010Z,20.10
2018-09-14T16:23:14.731Z,19.80
2018-09-14T16:25:43.322Z,19.70
2018-09-14T16:28:11.986Z,19.60
2018-09-14T16:30:40.587Z,19.50
2018-09-14T16:33:09.305Z,19.60
2018-09-14T16:35:37.907Z,19.60
2018-09-14T16:38:06.540Z,19.60
2018-09-14T16:40:35.133Z,19.60
2018-09-14T16:43:03.732Z,19.50
2018-09-14T16:45:32.387Z,19.50
2018-09-14T16:48:01.004Z,19.50
2018-09-14T16:50:29.652Z,19.40
2018-09-14T16:52:58.223Z,19.50
2018-09-14T16:55:26.907Z,19.50
2018-09-14T16:57:55.513Z,19.50
2018-09-14T17:00:24.143Z,19.50
2018-09-14T17:02:52.760Z,19.30
2018-09-14T17:05:21.376Z,19.30
2018-09-14T17:07:50.006Z,19.20
2018-09-14T17:10:18.610Z,19.20
2018-09-14T17:12:47.228Z,19.10
2018-09-14T17:15:15.854Z,19.00
2018-09-14T17:17:44.459Z,18.90
2018-09-14T17:20:13.087Z,18.80
2018-09-14T17:22:41.705Z,18.70
2018-09-14T17:25:10.330Z,18.60
2018-09-14T17:27:38.968Z,18.50
2018-09-14T17:30:07.591Z,18.40
2018-09-14T17:32:36.205Z,18.30
2018-09-14T17:35:04.823Z,18.10
2018-09-14T17:37:33.444Z,18.00
2018-09-14T17:40:02.061Z,17.90
2018-09-14T17:42:30.675Z,17.80
2018-09-14T17:44:59.291Z,17.70
2018-09-14T17:47:27.904Z,17.60
2018-09-14T17:49:56.543Z,17.50
2018-09-14T17:52:25.170Z,17.40
2018-09-14T17:54:53.779Z,17.30
2018-09-14T17:57:22.400Z,17.20
2018-09-14T17:59:51.023Z,17.20
2018-09-14T18:02:19.656Z,17.00
2018-09-14T18:04:48.286Z,17.00
2018-09-14T18:07:16.927Z,16.90
2018-09-14T18:09:45.549Z,16.80
2018-09-14T18:12:14.174Z,16.80
2018-09-14T18:14:42.799Z,16.70
2018-09-14T18:17:11.427Z,16.60
2018-09-14T18:19:40.208Z,16.50
2018-09-14T18:22:08.891Z,16.50
2018-09-14T18:24:37.483Z,16.50
2018-09-14T18:27:06.124Z,16.40
2018-09-14T18:29:34.735Z,16.30
2018-09-14T18:32:03.360Z,16.20
2018-09-14T18:34:33.019Z,16.10
2018-09-14T18:37:01.777Z,16.10
2018-09-14T18:39:30.392Z,15.90
2018-09-14T18:41:59.006Z,15.80
2018-09-14T18:44:27.635Z,15.80
2018-09-14T18:46:56.337Z,15.80
2018-09-14T18:49:24.894Z,15.70
2018-09-14T18:51:53.848Z,15.60
2018-09-14T18:54:22.516Z,15.50
2018-09-14T18:56:51.147Z,15.50
2018-09-14T18:59:19.795Z,15.60
2018-09-14T19:01:48.485Z,15.50
2018-09-14T19:04:17.099Z,15.50
2018-09-14T19:06:45.704Z,15.50
2018-09-14T19:09:14.320Z,15.40
2018-09-14T19:11:42.964Z,15.40
2018-09-14T19:14:11.637Z,15.40
2018-09-14T19:16:40.289Z,15.30
2018-09-14T19:19:08.941Z,15.10
2018-09-14T19:21:37.516Z,15.00
2018-09-14T19:24:06.167Z,15.10
2018-09-14T19:26:34.772Z,15.00
2018-09-14T19:29:03.439Z,15.00
2018-09-14T19:31:32.099Z,15.10
2018-09-14T19:34:00.773Z,15.00
2018-09-14T19:36:29.407Z,15.00
2018-09-14T19:38:58.019Z,15.00
2018-09-14T19:41:26.649Z,14.90
2018-09-14T19:43:55.295Z,15.00
2018-09-14T19:46:23.951Z,15.00
2018-09-14T19:48:52.647Z,15.00
2018-09-14T19:51:21.290Z,14.90
2018-09-14T19:53:49.980Z,15.00
2018-09-14T19:56:18.595Z,15.00
2018-09-14T19:58:47.387Z,14.90
2018-09-14T20:01:16.027Z,15.00
2018-09-14T20:03:44.947Z,14.90
2018-09-14T20:06:13.604Z,14.90
2018-09-14T20:08:42.191Z,14.90
2018-09-14T20:11:10.804Z,14.90
2018-09-14T20:13:39.480Z,14.80
2018-09-14T20:16:08.169Z,14.80
2018-09-14T20:18:38.581Z,14.80
2018-09-14T20:21:07.148Z,14.70
2018-09-14T20:23:35.824Z,14.70
2018-09-14T20:26:04.459Z,14.60
2018-09-14T20:28:33.059Z,14.60
2018-09-14T20:31:01.680Z,14.50
2018-09-14T20:33:30.307Z,14.60
2018-09-14T20:35:58.949Z,14.60
2018-09-14T20:38:27.551Z,14.50
2018-09-14T20:40:56.184Z,14.50
2018-09-14T20:43:24.815Z,14.50
2018-09-14T20:45:53.446Z,14.40
2018-09-14T20:48:22.088Z,14.40
2018-09-14T20:50:50.712Z,14.50
2018-09-14T20:53:19.331Z,14.60
2018-09-14T20:55:47.956Z,14.50
2018-09-14T20:58:16.670Z,14.50
2018-09-14T21:00:45.251Z,14.50
2018-09-14T21:03:13.877Z,14.50
2018-09-14T21:05:42.491Z,14.60
2018-09-14T21:08:11.144Z,14.60
2018-09-14T21:10:39.776Z,14.70
2018-09-14T21:13:08.414Z,14.70
2018-09-14T21:15:37.028Z,14.70
2018-09-14T21:18:06.469Z,14.60
2018-09-14T21:20:35.092Z,14.60
2018-09-14T21:23:03.719Z,14.60
2018-09-14T21:25:32.347Z,14.70
2018-09-14T21:28:00.971Z,14.80
2018-09-14T21:30:29.605Z,14.80
2018-09-14T21:32:58.240Z,14.80
2018-09-14T21:35:26.859Z,14.80
2018-09-14T21:37:55.484Z,14.80
2018-09-14T21:40:24.139Z,14.80
2018-09-14T21:42:52.753Z,14.90
2018-09-14T21:45:21.401Z,14.70
2018-09-14T21:47:50.028Z,14.80
2018-09-14T21:50:18.663Z,14.80
2018-09-14T21:52:47.299Z,14.90
2018-09-14T21:55:15.930Z,14.90
2018-09-14T21:57:44.582Z,14.90
2018-09-14T22:00:18.604Z,14.80
2018-09-14T22:02:47.239Z,14.80
2018-09-14T22:05:15.859Z,14.80
2018-09-14T22:07:44.508Z,14.80
2018-09-14T22:10:13.136Z,14.80
2018-09-14T22:12:41.779Z,14.80
2018-09-14T22:15:10.397Z,14.90
2018-09-14T22:17:39.031Z,15.00
2018-09-14T22:20:07.880Z,15.10
2018-09-14T22:22:36.504Z,15.10
2018-09-14T22:25:05.140Z,15.00
2018-09-14T22:27:33.767Z,14.90
2018-09-14T22:30:02.406Z,14.90
2018-09-14T22:32:31.014Z,14.80
2018-09-14T22:34:59.639Z,14.90
2018-09-14T22:37:28.261Z,14.90
2018-09-14T22:39:56.884Z,14.90
2018-09-14T22:42:25.526Z,15.00
2018-09-14T22:44:54.184Z,14.90
2018-09-14T22:47:22.795Z,14.90
2018-09-14T22:49:51.407Z,14.90
2018-09-14T22:52:20.031Z,14.90
2018-09-14T22:54:48.657Z,14.90
2018-09-14T22:57:17.353Z,14.70
2018-09-14T22:59:45.972Z,14.70
2018-09-14T23:02:14.579Z,14.60
2018-09-14T23:04:43.244Z,14.50
2018-09-14T23:07:11.868Z,14.40
2018-09-14T23:09:40.484Z,14.40
2018-09-14T23:12:09.100Z,14.40
2018-09-14T23:14:37.728Z,14.40
2018-09-14T23:17:06.568Z,14.40
2018-09-14T23:19:35.203Z,14.40
2018-09-14T23:22:03.815Z,14.30
2018-09-14T23:24:32.435Z,14.20
2018-09-14T23:27:01.047Z,14.30
2018-09-14T23:29:29.667Z,14.10
2018-09-14T23:31:58.320Z,13.90
2018-09-14T23:34:26.960Z,13.90
2018-09-14T23:36:55.572Z,13.70
2018-09-14T23:39:24.195Z,13.70
2018-09-14T23:41:52.822Z,13.60
2018-09-14T23:44:21.434Z,13.60
2018-09-14T23:46:50.053Z,13.50
2018-09-14T23:49:18.663Z,13.40
2018-09-14T23:51:47.349Z,13.40
2018-09-14T23:54:15.968Z,13.20
2018-09-14T23:56:44.587Z,13.20
2018-09-14T23:59:13.265Z,13.10
